Tiangang, China
Current Conditions -  °F | °C
As of 5:00 AM on Tuesday 21 Oct 2014 (Local Time) from ZYCC Reporting Station
Smoke Smoke  
Wind Chill: 18°   Ceiling: Unl
Heat Index: 18°   Visibility: 1.5mi
Dew Point: 12°   Wind: 0mph
Humidity: 79%   Direction: NA
Pressure: 30.39"   Gusts: NA
Location:  43.88°N, 126.95°E
Report Text: ZYCC 202100Z 00000MPS 2500 FU NSC M08/M11 Q1029 NOSIG
Loading
Personal Weather Stations






























Interactive Weather Map
Tropical Storm Tracking
New forecast layout! Learn more

10-Day Weather Forecast

Advertisements
Track Severe Weather on mobile